< < Back
Terminal Aerodrome Forecast


Current Version              Previous Versions:   1  2  3  4  5  6  7  8  9  

Terminal Aerodrome Forecast

805
FTUS44 KMOB 222300
TAFPNS
TAF
KPNS 222323Z 2300/2324 00000KT P6SM FEW030
     FM231500 13006KT P6SM SCT030 SCT250 PROB30 2315/2318 P6SM TS
      BKN030CB=

Latest METAR

288
SAUS70 KWBC 231400 RRM
MTRPNS
METAR KPNS 231353Z 00000KT 10SM SCT014 BKN022 BKN075 26/24 A3007 RMK AO2
SLP184 T02610239


USA.gov is the U.S. government's official web portal to all federal, state and local government web resources and services.